sensor_id;sensor_type;location;lat;lon;timestamp;temperature;humidity
9666;DHT22;4871;52.004;5.924;2023-09-07T00:00:00;23.2;54.3
9666;DHT22;4871;52.004;5.924;2023-09-07T00:01:06;23.2;54.0
9666;DHT22;4871;52.004;5.924;2023-09-07T00:02:00;23.1;54.3
9666;DHT22;4871;52.004;5.924;2023-09-07T00:03:02;23.1;54.0
9666;DHT22;4871;52.004;5.924;2023-09-07T00:04:00;23.1;54.1
9666;DHT22;4871;52.004;5.924;2023-09-07T00:05:00;23.1;54.8
9666;DHT22;4871;52.004;5.924;2023-09-07T00:06:00;23.0;54.5
9666;DHT22;4871;52.004;5.924;2023-09-07T00:07:03;23.0;54.6
9666;DHT22;4871;52.004;5.924;2023-09-07T00:08:00;23.0;54.6
9666;DHT22;4871;52.004;5.924;2023-09-07T00:09:01;22.9;54.7
9666;DHT22;4871;52.004;5.924;2023-09-07T00:10:01;22.9;54.9
9666;DHT22;4871;52.004;5.924;2023-09-07T00:11:03;22.9;54.7
9666;DHT22;4871;52.004;5.924;2023-09-07T00:12:00;22.9;54.6
9666;DHT22;4871;52.004;5.924;2023-09-07T00:13:03;22.9;54.8
9666;DHT22;4871;52.004;5.924;2023-09-07T00:14:00;22.9;55.0
9666;DHT22;4871;52.004;5.924;2023-09-07T00:15:00;22.9;54.9
9666;DHT22;4871;52.004;5.924;2023-09-07T00:16:02;22.9;55.1
9666;DHT22;4871;52.004;5.924;2023-09-07T00:17:00;22.8;55.0
9666;DHT22;4871;52.004;5.924;2023-09-07T00:18:00;22.8;55.0
9666;DHT22;4871;52.004;5.924;2023-09-07T00:19:00;22.8;54.8
9666;DHT22;4871;52.004;5.924;2023-09-07T00:20:00;22.8;54.8
9666;DHT22;4871;52.004;5.924;2023-09-07T00:21:01;22.8;55.0
9666;DHT22;4871;52.004;5.924;2023-09-07T00:22:00;22.7;55.1
9666;DHT22;4871;52.004;5.924;2023-09-07T00:23:03;22.7;54.8
9666;DHT22;4871;52.004;5.924;2023-09-07T00:24:05;22.7;55.0
9666;DHT22;4871;52.004;5.924;2023-09-07T00:25:01;22.7;55.0
9666;DHT22;4871;52.004;5.924;2023-09-07T00:26:00;22.7;54.9
9666;DHT22;4871;52.004;5.924;2023-09-07T00:27:05;22.7;55.0
9666;DHT22;4871;52.004;5.924;2023-09-07T00:28:00;22.7;54.9
9666;DHT22;4871;52.004;5.924;2023-09-07T00:29:02;22.7;54.8
9666;DHT22;4871;52.004;5.924;2023-09-07T00:30:00;22.7;54.9
9666;DHT22;4871;52.004;5.924;2023-09-07T00:31:00;22.6;55.4
9666;DHT22;4871;52.004;5.924;2023-09-07T00:32:00;22.6;55.5
9666;DHT22;4871;52.004;5.924;2023-09-07T00:33:01;22.6;55.5
9666;DHT22;4871;52.004;5.924;2023-09-07T00:34:00;22.6;55.4
9666;DHT22;4871;52.004;5.924;2023-09-07T00:35:01;22.6;55.4
9666;DHT22;4871;52.004;5.924;2023-09-07T00:36:01;22.6;55.4
9666;DHT22;4871;52.004;5.924;2023-09-07T00:37:01;22.5;55.0
9666;DHT22;4871;52.004;5.924;2023-09-07T00:38:00;22.5;55.5
9666;DHT22;4871;52.004;5.924;2023-09-07T00:39:00;22.5;55.5
9666;DHT22;4871;52.004;5.924;2023-09-07T00:40:00;22.5;55.6
9666;DHT22;4871;52.004;5.924;2023-09-07T00:41:01;22.5;55.2
9666;DHT22;4871;52.004;5.924;2023-09-07T00:42:00;22.5;55.4
9666;DHT22;4871;52.004;5.924;2023-09-07T00:43:00;22.5;55.3
9666;DHT22;4871;52.004;5.924;2023-09-07T00:44:00;22.4;55.5
9666;DHT22;4871;52.004;5.924;2023-09-07T00:45:01;22.4;55.3
9666;DHT22;4871;52.004;5.924;2023-09-07T00:46:00;22.4;55.5
9666;DHT22;4871;52.004;5.924;2023-09-07T00:47:02;22.4;55.6
9666;DHT22;4871;52.004;5.924;2023-09-07T00:48:00;22.4;55.7
9666;DHT22;4871;52.004;5.924;2023-09-07T00:49:02;22.3;55.7
9666;DHT22;4871;52.004;5.924;2023-09-07T00:50:00;22.3;55.4
9666;DHT22;4871;52.004;5.924;2023-09-07T00:51:01;22.3;55.6
9666;DHT22;4871;52.004;5.924;2023-09-07T00:52:00;22.3;55.9
9666;DHT22;4871;52.004;5.924;2023-09-07T00:53:03;22.3;55.5
9666;DHT22;4871;52.004;5.924;2023-09-07T00:54:00;22.3;55.6
9666;DHT22;4871;52.004;5.924;2023-09-07T00:55:02;22.3;55.7
9666;DHT22;4871;52.004;5.924;2023-09-07T00:56:01;22.3;55.8
9666;DHT22;4871;52.004;5.924;2023-09-07T00:57:00;22.3;55.7
9666;DHT22;4871;52.004;5.924;2023-09-07T00:58:00;22.3;55.7
9666;DHT22;4871;52.004;5.924;2023-09-07T00:59:00;22.3;55.6
9666;DHT22;4871;52.004;5.924;2023-09-07T01:00:00;22.2;55.8
9666;DHT22;4871;52.004;5.924;2023-09-07T01:01:02;22.2;55.7
9666;DHT22;4871;52.004;5.924;2023-09-07T01:02:00;22.2;55.6
9666;DHT22;4871;52.004;5.924;2023-09-07T01:03:02;22.2;55.6
9666;DHT22;4871;52.004;5.924;2023-09-07T01:04:01;22.2;55.8
9666;DHT22;4871;52.004;5.924;2023-09-07T01:05:01;22.2;55.8
9666;DHT22;4871;52.004;5.924;2023-09-07T01:06:04;22.2;55.7
9666;DHT22;4871;52.004;5.924;2023-09-07T01:07:03;22.1;55.9
9666;DHT22;4871;52.004;5.924;2023-09-07T01:08:05;22.1;55.7
9666;DHT22;4871;52.004;5.924;2023-09-07T01:09:03;22.1;55.8
9666;DHT22;4871;52.004;5.924;2023-09-07T01:10:02;22.1;55.9
9666;DHT22;4871;52.004;5.924;2023-09-07T01:11:00;22.1;55.9
9666;DHT22;4871;52.004;5.924;2023-09-07T01:12:01;22.1;55.8
9666;DHT22;4871;52.004;5.924;2023-09-07T01:13:00;22.1;55.8
9666;DHT22;4871;52.004;5.924;2023-09-07T01:14:04;22.1;55.9
9666;DHT22;4871;52.004;5.924;2023-09-07T01:15:00;22.1;55.9
9666;DHT22;4871;52.004;5.924;2023-09-07T01:16:01;22.1;55.8
9666;DHT22;4871;52.004;5.924;2023-09-07T01:17:00;22.0;55.8
9666;DHT22;4871;52.004;5.924;2023-09-07T01:18:02;22.0;55.9
9666;DHT22;4871;52.004;5.924;2023-09-07T01:19:00;22.0;55.9
9666;DHT22;4871;52.004;5.924;2023-09-07T01:20:07;22.0;55.9
9666;DHT22;4871;52.004;5.924;2023-09-07T01:21:01;22.0;55.8
9666;DHT22;4871;52.004;5.924;2023-09-07T01:22:01;22.0;55.9
9666;DHT22;4871;52.004;5.924;2023-09-07T01:23:01;22.0;55.8
9666;DHT22;4871;52.004;5.924;2023-09-07T01:24:02;22.0;55.8
9666;DHT22;4871;52.004;5.924;2023-09-07T01:25:00;22.0;55.5
9666;DHT22;4871;52.004;5.924;2023-09-07T01:26:01;22.0;55.8
9666;DHT22;4871;52.004;5.924;2023-09-07T01:27:01;22.0;55.8
9666;DHT22;4871;52.004;5.924;2023-09-07T01:28:01;22.0;56.0
9666;DHT22;4871;52.004;5.924;2023-09-07T01:29:00;22.0;56.0
9666;DHT22;4871;52.004;5.924;2023-09-07T01:30:03;21.9;56.0
9666;DHT22;4871;52.004;5.924;2023-09-07T01:31:01;21.9;55.8
9666;DHT22;4871;52.004;5.924;2023-09-07T01:32:03;21.9;56.0
9666;DHT22;4871;52.004;5.924;2023-09-07T01:33:00;21.9;55.9
9666;DHT22;4871;52.004;5.924;2023-09-07T01:34:02;21.9;56.0
9666;DHT22;4871;52.004;5.924;2023-09-07T01:35:01;21.9;55.6
9666;DHT22;4871;52.004;5.924;2023-09-07T01:36:01;21.9;56.0
9666;DHT22;4871;52.004;5.924;2023-09-07T01:37:00;21.9;55.7
9666;DHT22;4871;52.004;5.924;2023-09-07T01:38:02;21.8;56.0
9666;DHT22;4871;52.004;5.924;2023-09-07T01:39:00;21.8;56.0
9666;DHT22;4871;52.004;5.924;2023-09-07T01:40:07;21.8;56.0
9666;DHT22;4871;52.004;5.924;2023-09-07T01:41:00;21.8;55.9
9666;DHT22;4871;52.004;5.924;2023-09-07T01:42:02;21.8;56.0
9666;DHT22;4871;52.004;5.924;2023-09-07T01:43:00;21.8;56.0
9666;DHT22;4871;52.004;5.924;2023-09-07T01:44:01;21.8;55.9
9666;DHT22;4871;52.004;5.924;2023-09-07T01:45:00;21.8;56.1
9666;DHT22;4871;52.004;5.924;2023-09-07T01:46:01;21.8;55.9
9666;DHT22;4871;52.004;5.924;2023-09-07T01:47:00;21.8;56.0
9666;DHT22;4871;52.004;5.924;2023-09-07T01:48:01;21.7;56.0
9666;DHT22;4871;52.004;5.924;2023-09-07T01:49:00;21.7;55.9
9666;DHT22;4871;52.004;5.924;2023-09-07T01:50:00;21.7;56.1
9666;DHT22;4871;52.004;5.924;2023-09-07T01:51:00;21.7;56.1
9666;DHT22;4871;52.004;5.924;2023-09-07T01:52:04;21.7;56.0
9666;DHT22;4871;52.004;5.924;2023-09-07T01:53:00;21.7;56.0
9666;DHT22;4871;52.004;5.924;2023-09-07T01:54:01;21.7;56.1
9666;DHT22;4871;52.004;5.924;2023-09-07T01:55:00;21.7;56.1
9666;DHT22;4871;52.004;5.924;2023-09-07T01:56:01;21.7;56.0
9666;DHT22;4871;52.004;5.924;2023-09-07T01:57:00;21.7;56.0
9666;DHT22;4871;52.004;5.924;2023-09-07T01:58:00;21.7;56.1
9666;DHT22;4871;52.004;5.924;2023-09-07T01:59:00;21.6;56.2
9666;DHT22;4871;52.004;5.924;2023-09-07T02:00:01;21.6;56.2
9666;DHT22;4871;52.004;5.924;2023-09-07T02:01:00;21.6;56.2
9666;DHT22;4871;52.004;5.924;2023-09-07T02:02:01;21.6;56.2
9666;DHT22;4871;52.004;5.924;2023-09-07T02:03:00;21.6;56.2
9666;DHT22;4871;52.004;5.924;2023-09-07T02:04:01;21.6;56.2
9666;DHT22;4871;52.004;5.924;2023-09-07T02:05:00;21.6;56.2
9666;DHT22;4871;52.004;5.924;2023-09-07T02:06:02;21.6;56.2
9666;DHT22;4871;52.004;5.924;2023-09-07T02:07:00;21.6;56.2
9666;DHT22;4871;52.004;5.924;2023-09-07T02:08:01;21.5;56.2
9666;DHT22;4871;52.004;5.924;2023-09-07T02:09:00;21.5;56.3
9666;DHT22;4871;52.004;5.924;2023-09-07T02:10:01;21.5;56.0
9666;DHT22;4871;52.004;5.924;2023-09-07T02:11:01;21.5;56.3
9666;DHT22;4871;52.004;5.924;2023-09-07T02:12:01;21.5;56.4
9666;DHT22;4871;52.004;5.924;2023-09-07T02:13:00;21.4;56.4
9666;DHT22;4871;52.004;5.924;2023-09-07T02:14:01;21.5;56.5
9666;DHT22;4871;52.004;5.924;2023-09-07T02:15:02;21.5;56.3
9666;DHT22;4871;52.004;5.924;2023-09-07T02:16:03;21.5;56.3
9666;DHT22;4871;52.004;5.924;2023-09-07T02:17:00;21.4;56.4
9666;DHT22;4871;52.004;5.924;2023-09-07T02:18:04;21.4;56.4
9666;DHT22;4871;52.004;5.924;2023-09-07T02:19:01;21.4;56.5
9666;DHT22;4871;52.004;5.924;2023-09-07T02:20:00;21.4;56.5
9666;DHT22;4871;52.004;5.924;2023-09-07T02:21:01;21.4;56.4
9666;DHT22;4871;52.004;5.924;2023-09-07T02:22:02;21.4;56.4
9666;DHT22;4871;52.004;5.924;2023-09-07T02:23:00;21.3;56.4
9666;DHT22;4871;52.004;5.924;2023-09-07T02:24:01;21.4;56.4
9666;DHT22;4871;52.004;5.924;2023-09-07T02:25:00;21.4;56.5
9666;DHT22;4871;52.004;5.924;2023-09-07T02:26:03;21.4;56.6
9666;DHT22;4871;52.004;5.924;2023-09-07T02:27:00;21.3;56.2
9666;DHT22;4871;52.004;5.924;2023-09-07T02:28:03;21.3;56.7
9666;DHT22;4871;52.004;5.924;2023-09-07T02:29:03;21.3;56.5
9666;DHT22;4871;52.004;5.924;2023-09-07T02:30:02;21.3;56.4
9666;DHT22;4871;52.004;5.924;2023-09-07T02:31:04;21.3;56.6
9666;DHT22;4871;52.004;5.924;2023-09-07T02:32:03;21.3;56.6
9666;DHT22;4871;52.004;5.924;2023-09-07T02:33:00;21.3;56.6
9666;DHT22;4871;52.004;5.924;2023-09-07T02:34:03;21.3;56.6
9666;DHT22;4871;52.004;5.924;2023-09-07T02:35:00;21.2;56.6
9666;DHT22;4871;52.004;5.924;2023-09-07T02:36:02;21.2;56.7
9666;DHT22;4871;52.004;5.924;2023-09-07T02:37:00;21.2;56.6
9666;DHT22;4871;52.004;5.924;2023-09-07T02:38:00;21.2;56.7
9666;DHT22;4871;52.004;5.924;2023-09-07T02:39:01;21.2;56.7
9666;DHT22;4871;52.004;5.924;2023-09-07T02:40:05;21.2;56.6
9666;DHT22;4871;52.004;5.924;2023-09-07T02:41:01;21.2;56.7
9666;DHT22;4871;52.004;5.924;2023-09-07T02:42:01;21.3;56.6
9666;DHT22;4871;52.004;5.924;2023-09-07T02:43:00;21.2;56.5
9666;DHT22;4871;52.004;5.924;2023-09-07T02:44:03;21.2;56.7
9666;DHT22;4871;52.004;5.924;2023-09-07T02:45:00;21.2;56.6
9666;DHT22;4871;52.004;5.924;2023-09-07T02:46:02;21.1;56.7
9666;DHT22;4871;52.004;5.924;2023-09-07T02:47:00;21.2;56.6
9666;DHT22;4871;52.004;5.924;2023-09-07T02:48:02;21.2;56.5
9666;DHT22;4871;52.004;5.924;2023-09-07T02:49:00;21.1;56.6
9666;DHT22;4871;52.004;5.924;2023-09-07T02:50:02;21.1;56.7
9666;DHT22;4871;52.004;5.924;2023-09-07T02:51:00;21.1;56.8
9666;DHT22;4871;52.004;5.924;2023-09-07T02:52:01;21.1;56.7
9666;DHT22;4871;52.004;5.924;2023-09-07T02:53:01;21.1;56.7
9666;DHT22;4871;52.004;5.924;2023-09-07T02:54:05;21.1;56.7
9666;DHT22;4871;52.004;5.924;2023-09-07T02:55:00;21.0;56.8
9666;DHT22;4871;52.004;5.924;2023-09-07T02:56:04;21.0;56.7
9666;DHT22;4871;52.004;5.924;2023-09-07T02:57:00;21.0;56.9
9666;DHT22;4871;52.004;5.924;2023-09-07T02:58:02;21.0;56.8
9666;DHT22;4871;52.004;5.924;2023-09-07T02:59:00;21.0;56.8
9666;DHT22;4871;52.004;5.924;2023-09-07T03:00:09;21.0;56.8
9666;DHT22;4871;52.004;5.924;2023-09-07T03:01:05;21.0;56.7
9666;DHT22;4871;52.004;5.924;2023-09-07T03:02:02;21.0;56.8
9666;DHT22;4871;52.004;5.924;2023-09-07T03:03:02;21.0;56.7
9666;DHT22;4871;52.004;5.924;2023-09-07T03:04:03;21.0;56.5
9666;DHT22;4871;52.004;5.924;2023-09-07T03:05:00;21.0;56.6
9666;DHT22;4871;52.004;5.924;2023-09-07T03:06:08;21.0;56.7
9666;DHT22;4871;52.004;5.924;2023-09-07T03:07:00;20.9;56.7
9666;DHT22;4871;52.004;5.924;2023-09-07T03:08:02;20.9;56.8
9666;DHT22;4871;52.004;5.924;2023-09-07T03:09:00;20.9;56.8
9666;DHT22;4871;52.004;5.924;2023-09-07T03:10:02;20.9;56.9
9666;DHT22;4871;52.004;5.924;2023-09-07T03:11:03;20.9;56.9
9666;DHT22;4871;52.004;5.924;2023-09-07T03:12:02;20.9;57.0
9666;DHT22;4871;52.004;5.924;2023-09-07T03:13:00;20.8;56.9
9666;DHT22;4871;52.004;5.924;2023-09-07T03:14:01;20.8;56.9
9666;DHT22;4871;52.004;5.924;2023-09-07T03:15:04;20.9;56.8
9666;DHT22;4871;52.004;5.924;2023-09-07T03:16:02;20.9;56.8
9666;DHT22;4871;52.004;5.924;2023-09-07T03:17:00;20.8;56.8
9666;DHT22;4871;52.004;5.924;2023-09-07T03:18:02;20.8;56.9
9666;DHT22;4871;52.004;5.924;2023-09-07T03:19:00;20.8;56.8
9666;DHT22;4871;52.004;5.924;2023-09-07T03:20:13;20.8;56.9
9666;DHT22;4871;52.004;5.924;2023-09-07T03:21:01;20.8;56.9
9666;DHT22;4871;52.004;5.924;2023-09-07T03:22:01;20.8;56.9
9666;DHT22;4871;52.004;5.924;2023-09-07T03:23:00;20.8;56.9
9666;DHT22;4871;52.004;5.924;2023-09-07T03:24:02;20.8;56.9
9666;DHT22;4871;52.004;5.924;2023-09-07T03:25:00;20.8;56.9
9666;DHT22;4871;52.004;5.924;2023-09-07T03:26:01;20.7;57.0
9666;DHT22;4871;52.004;5.924;2023-09-07T03:27:00;20.8;56.9
9666;DHT22;4871;52.004;5.924;2023-09-07T03:28:04;20.7;57.0
9666;DHT22;4871;52.004;5.924;2023-09-07T03:29:00;20.7;56.9
9666;DHT22;4871;52.004;5.924;2023-09-07T03:30:05;20.7;57.0
9666;DHT22;4871;52.004;5.924;2023-09-07T03:31:00;20.7;57.0
9666;DHT22;4871;52.004;5.924;2023-09-07T03:32:01;20.7;56.9
9666;DHT22;4871;52.004;5.924;2023-09-07T03:33:00;20.7;56.9
9666;DHT22;4871;52.004;5.924;2023-09-07T03:34:05;20.7;57.0
9666;DHT22;4871;52.004;5.924;2023-09-07T03:35:03;20.7;57.0
9666;DHT22;4871;52.004;5.924;2023-09-07T03:36:01;20.7;57.0
9666;DHT22;4871;52.004;5.924;2023-09-07T03:37:00;20.7;57.0
9666;DHT22;4871;52.004;5.924;2023-09-07T03:38:02;20.6;57.0
9666;DHT22;4871;52.004;5.924;2023-09-07T03:39:00;20.6;57.0
9666;DHT22;4871;52.004;5.924;2023-09-07T03:40:00;20.6;57.2
9666;DHT22;4871;52.004;5.924;2023-09-07T03:41:00;20.6;57.1
9666;DHT22;4871;52.004;5.924;2023-09-07T03:42:02;20.6;57.1
9666;DHT22;4871;52.004;5.924;2023-09-07T03:43:00;20.6;56.9
9666;DHT22;4871;52.004;5.924;2023-09-07T03:44:01;20.6;57.1
9666;DHT22;4871;52.004;5.924;2023-09-07T03:45:00;20.6;56.9
9666;DHT22;4871;52.004;5.924;2023-09-07T03:46:00;20.6;57.0
9666;DHT22;4871;52.004;5.924;2023-09-07T03:47:00;20.6;56.9
9666;DHT22;4871;52.004;5.924;2023-09-07T03:48:02;20.5;57.3
9666;DHT22;4871;52.004;5.924;2023-09-07T03:49:00;20.6;57.1
9666;DHT22;4871;52.004;5.924;2023-09-07T03:50:01;20.5;57.1
9666;DHT22;4871;52.004;5.924;2023-09-07T03:51:00;20.6;57.0
9666;DHT22;4871;52.004;5.924;2023-09-07T03:52:02;20.6;56.9
9666;DHT22;4871;52.004;5.924;2023-09-07T03:53:00;20.5;57.0
9666;DHT22;4871;52.004;5.924;2023-09-07T03:54:00;20.5;57.0
9666;DHT22;4871;52.004;5.924;2023-09-07T03:55:01;20.5;57.0
9666;DHT22;4871;52.004;5.924;2023-09-07T03:56:02;20.5;56.9
9666;DHT22;4871;52.004;5.924;2023-09-07T03:57:00;20.5;57.2
9666;DHT22;4871;52.004;5.924;2023-09-07T03:58:03;20.5;57.2
9666;DHT22;4871;52.004;5.924;2023-09-07T03:59:00;20.4;57.3
9666;DHT22;4871;52.004;5.924;2023-09-07T04:00:08;20.5;57.0
9666;DHT22;4871;52.004;5.924;2023-09-07T04:01:00;20.4;57.2
9666;DHT22;4871;52.004;5.924;2023-09-07T04:02:02;20.4;57.2
9666;DHT22;4871;52.004;5.924;2023-09-07T04:03:00;20.4;57.3
9666;DHT22;4871;52.004;5.924;2023-09-07T04:04:01;20.4;57.1
9666;DHT22;4871;52.004;5.924;2023-09-07T04:05:03;20.4;57.2
9666;DHT22;4871;52.004;5.924;2023-09-07T04:06:00;20.4;57.3
9666;DHT22;4871;52.004;5.924;2023-09-07T04:07:00;20.4;57.2
9666;DHT22;4871;52.004;5.924;2023-09-07T04:08:03;20.4;57.3
9666;DHT22;4871;52.004;5.924;2023-09-07T04:09:00;20.4;57.2
9666;DHT22;4871;52.004;5.924;2023-09-07T04:10:03;20.4;57.2
9666;DHT22;4871;52.004;5.924;2023-09-07T04:11:03;20.4;57.3
9666;DHT22;4871;52.004;5.924;2023-09-07T04:12:04;20.4;56.9
9666;DHT22;4871;52.004;5.924;2023-09-07T04:13:00;20.3;57.2
9666;DHT22;4871;52.004;5.924;2023-09-07T04:14:01;20.4;57.2
9666;DHT22;4871;52.004;5.924;2023-09-07T04:15:01;20.3;57.2
9666;DHT22;4871;52.004;5.924;2023-09-07T04:16:01;20.3;57.3
9666;DHT22;4871;52.004;5.924;2023-09-07T04:17:00;20.3;57.2
9666;DHT22;4871;52.004;5.924;2023-09-07T04:18:01;20.3;57.1
9666;DHT22;4871;52.004;5.924;2023-09-07T04:19:00;20.3;57.2
9666;DHT22;4871;52.004;5.924;2023-09-07T04:20:04;20.3;57.2
9666;DHT22;4871;52.004;5.924;2023-09-07T04:21:04;20.3;57.2
9666;DHT22;4871;52.004;5.924;2023-09-07T04:22:03;20.3;57.1
9666;DHT22;4871;52.004;5.924;2023-09-07T04:23:00;20.3;57.3
9666;DHT22;4871;52.004;5.924;2023-09-07T04:24:00;20.3;57.2
9666;DHT22;4871;52.004;5.924;2023-09-07T04:25:00;20.3;57.2
9666;DHT22;4871;52.004;5.924;2023-09-07T04:26:05;20.3;57.3
9666;DHT22;4871;52.004;5.924;2023-09-07T04:27:01;20.2;57.3
9666;DHT22;4871;52.004;5.924;2023-09-07T04:28:02;20.2;57.3
9666;DHT22;4871;52.004;5.924;2023-09-07T04:29:00;20.2;57.2
9666;DHT22;4871;52.004;5.924;2023-09-07T04:30:02;20.3;57.0
9666;DHT22;4871;52.004;5.924;2023-09-07T04:31:00;20.3;57.2
9666;DHT22;4871;52.004;5.924;2023-09-07T04:32:02;20.2;57.3
9666;DHT22;4871;52.004;5.924;2023-09-07T04:33:00;20.2;57.2
9666;DHT22;4871;52.004;5.924;2023-09-07T04:34:03;20.2;57.4
9666;DHT22;4871;52.004;5.924;2023-09-07T04:35:01;20.2;57.3
9666;DHT22;4871;52.004;5.924;2023-09-07T04:36:08;20.2;57.4
9666;DHT22;4871;52.004;5.924;2023-09-07T04:37:00;20.2;57.5
9666;DHT22;4871;52.004;5.924;2023-09-07T04:38:02;20.1;57.4
9666;DHT22;4871;52.004;5.924;2023-09-07T04:39:00;20.1;57.5
9666;DHT22;4871;52.004;5.924;2023-09-07T04:40:01;20.1;57.6
9666;DHT22;4871;52.004;5.924;2023-09-07T04:41:06;20.1;57.5
9666;DHT22;4871;52.004;5.924;2023-09-07T04:42:04;20.1;57.5
9666;DHT22;4871;52.004;5.924;2023-09-07T04:43:00;20.1;57.4
9666;DHT22;4871;52.004;5.924;2023-09-07T04:44:04;20.1;57.4
9666;DHT22;4871;52.004;5.924;2023-09-07T04:45:00;20.1;57.4
9666;DHT22;4871;52.004;5.924;2023-09-07T04:46:03;20.1;57.4
9666;DHT22;4871;52.004;5.924;2023-09-07T04:47:00;20.1;57.4
9666;DHT22;4871;52.004;5.924;2023-09-07T04:48:02;20.1;57.5
9666;DHT22;4871;52.004;5.924;2023-09-07T04:49:00;20.1;57.5
9666;DHT22;4871;52.004;5.924;2023-09-07T04:50:05;20.1;57.5
9666;DHT22;4871;52.004;5.924;2023-09-07T04:51:00;20.1;57.5
9666;DHT22;4871;52.004;5.924;2023-09-07T04:52:03;20.1;57.3
9666;DHT22;4871;52.004;5.924;2023-09-07T04:53:00;20.1;57.4
9666;DHT22;4871;52.004;5.924;2023-09-07T04:54:02;20.1;57.4
9666;DHT22;4871;52.004;5.924;2023-09-07T04:55:00;20.0;57.5
9666;DHT22;4871;52.004;5.924;2023-09-07T04:56:01;20.0;57.3
9666;DHT22;4871;52.004;5.924;2023-09-07T04:57:00;20.0;57.4
9666;DHT22;4871;52.004;5.924;2023-09-07T04:58:02;20.0;57.4
9666;DHT22;4871;52.004;5.924;2023-09-07T04:59:00;20.0;57.3
9666;DHT22;4871;52.004;5.924;2023-09-07T05:00:01;20.0;57.5
9666;DHT22;4871;52.004;5.924;2023-09-07T05:01:02;20.0;57.5
9666;DHT22;4871;52.004;5.924;2023-09-07T05:02:02;20.0;57.5
9666;DHT22;4871;52.004;5.924;2023-09-07T05:03:00;20.0;57.5
9666;DHT22;4871;52.004;5.924;2023-09-07T05:04:03;20.0;57.5
9666;DHT22;4871;52.004;5.924;2023-09-07T05:05:00;19.9;57.4
9666;DHT22;4871;52.004;5.924;2023-09-07T05:06:03;19.9;57.8
9666;DHT22;4871;52.004;5.924;2023-09-07T05:07:00;19.9;57.8
9666;DHT22;4871;52.004;5.924;2023-09-07T05:08:05;19.9;57.5
9666;DHT22;4871;52.004;5.924;2023-09-07T05:09:00;19.9;57.6
9666;DHT22;4871;52.004;5.924;2023-09-07T05:10:03;19.9;57.5
9666;DHT22;4871;52.004;5.924;2023-09-07T05:11:02;19.9;57.6
9666;DHT22;4871;52.004;5.924;2023-09-07T05:12:01;19.9;57.5
9666;DHT22;4871;52.004;5.924;2023-09-07T05:13:00;19.9;57.5
9666;DHT22;4871;52.004;5.924;2023-09-07T05:14:04;19.9;57.5
9666;DHT22;4871;52.004;5.924;2023-09-07T05:15:00;19.9;57.6
9666;DHT22;4871;52.004;5.924;2023-09-07T05:16:02;19.9;57.6
9666;DHT22;4871;52.004;5.924;2023-09-07T05:17:00;19.9;57.4
9666;DHT22;4871;52.004;5.924;2023-09-07T05:18:02;19.9;57.8
9666;DHT22;4871;52.004;5.924;2023-09-07T05:19:00;19.9;57.7
9666;DHT22;4871;52.004;5.924;2023-09-07T05:20:02;19.9;57.7
9666;DHT22;4871;52.004;5.924;2023-09-07T05:21:00;19.9;57.3
9666;DHT22;4871;52.004;5.924;2023-09-07T05:22:02;19.9;57.6
9666;DHT22;4871;52.004;5.924;2023-09-07T05:23:01;19.9;57.6
9666;DHT22;4871;52.004;5.924;2023-09-07T05:24:01;19.9;57.5
9666;DHT22;4871;52.004;5.924;2023-09-07T05:25:01;19.9;57.5
9666;DHT22;4871;52.004;5.924;2023-09-07T05:26:01;19.9;57.6
9666;DHT22;4871;52.004;5.924;2023-09-07T05:27:00;19.9;57.5
9666;DHT22;4871;52.004;5.924;2023-09-07T05:28:01;19.9;57.4
9666;DHT22;4871;52.004;5.924;2023-09-07T05:29:00;19.9;57.3
9666;DHT22;4871;52.004;5.924;2023-09-07T05:30:02;19.8;57.7
9666;DHT22;4871;52.004;5.924;2023-09-07T05:31:00;19.8;57.5
9666;DHT22;4871;52.004;5.924;2023-09-07T05:32:02;19.8;57.7
9666;DHT22;4871;52.004;5.924;2023-09-07T05:33:00;19.8;57.8
9666;DHT22;4871;52.004;5.924;2023-09-07T05:34:02;19.8;57.8
9666;DHT22;4871;52.004;5.924;2023-09-07T05:35:00;19.9;57.5
9666;DHT22;4871;52.004;5.924;2023-09-07T05:36:01;19.8;57.6
9666;DHT22;4871;52.004;5.924;2023-09-07T05:37:00;19.8;57.7
9666;DHT22;4871;52.004;5.924;2023-09-07T05:38:01;19.8;57.6
9666;DHT22;4871;52.004;5.924;2023-09-07T05:39:02;19.8;57.5
9666;DHT22;4871;52.004;5.924;2023-09-07T05:40:04;19.8;57.5
9666;DHT22;4871;52.004;5.924;2023-09-07T05:41:00;19.9;57.4
9666;DHT22;4871;52.004;5.924;2023-09-07T05:42:01;19.9;57.4
9666;DHT22;4871;52.004;5.924;2023-09-07T05:43:00;19.9;57.3
9666;DHT22;4871;52.004;5.924;2023-09-07T05:44:00;19.9;57.3
9666;DHT22;4871;52.004;5.924;2023-09-07T05:45:00;19.9;57.4
9666;DHT22;4871;52.004;5.924;2023-09-07T05:46:02;19.8;57.4
9666;DHT22;4871;52.004;5.924;2023-09-07T05:47:02;19.8;57.5
9666;DHT22;4871;52.004;5.924;2023-09-07T05:48:04;19.9;57.3
9666;DHT22;4871;52.004;5.924;2023-09-07T05:49:00;19.9;57.4
9666;DHT22;4871;52.004;5.924;2023-09-07T05:50:02;19.9;57.4
9666;DHT22;4871;52.004;5.924;2023-09-07T05:51:00;19.9;57.4
9666;DHT22;4871;52.004;5.924;2023-09-07T05:52:02;19.9;57.3
9666;DHT22;4871;52.004;5.924;2023-09-07T05:53:00;19.9;57.3
9666;DHT22;4871;52.004;5.924;2023-09-07T05:54:03;19.9;57.3
9666;DHT22;4871;52.004;5.924;2023-09-07T05:55:00;19.9;57.3
9666;DHT22;4871;52.004;5.924;2023-09-07T05:56:03;19.9;57.2
9666;DHT22;4871;52.004;5.924;2023-09-07T05:57:00;19.9;57.1
9666;DHT22;4871;52.004;5.924;2023-09-07T05:58:05;19.9;57.3
9666;DHT22;4871;52.004;5.924;2023-09-07T05:59:00;19.9;57.2
9666;DHT22;4871;52.004;5.924;2023-09-07T06:00:02;19.9;57.3
9666;DHT22;4871;52.004;5.924;2023-09-07T06:01:00;19.9;57.1
9666;DHT22;4871;52.004;5.924;2023-09-07T06:02:04;20.0;57.0
9666;DHT22;4871;52.004;5.924;2023-09-07T06:03:00;19.9;57.2
9666;DHT22;4871;52.004;5.924;2023-09-07T06:04:03;20.0;57.1
9666;DHT22;4871;52.004;5.924;2023-09-07T06:05:00;20.0;57.0
9666;DHT22;4871;52.004;5.924;2023-09-07T06:06:03;20.0;57.0
9666;DHT22;4871;52.004;5.924;2023-09-07T06:07:00;20.0;57.0
9666;DHT22;4871;52.004;5.924;2023-09-07T06:08:03;20.1;56.9
9666;DHT22;4871;52.004;5.924;2023-09-07T06:09:00;20.1;56.8
9666;DHT22;4871;52.004;5.924;2023-09-07T06:10:00;20.1;56.7
9666;DHT22;4871;52.004;5.924;2023-09-07T06:11:00;20.1;56.9
9666;DHT22;4871;52.004;5.924;2023-09-07T06:12:04;20.1;57.0
9666;DHT22;4871;52.004;5.924;2023-09-07T06:13:00;20.1;57.0
9666;DHT22;4871;52.004;5.924;2023-09-07T06:14:02;20.1;56.9
9666;DHT22;4871;52.004;5.924;2023-09-07T06:15:01;20.1;56.8
9666;DHT22;4871;52.004;5.924;2023-09-07T06:16:03;20.2;56.8
9666;DHT22;4871;52.004;5.924;2023-09-07T06:17:00;20.2;56.7
9666;DHT22;4871;52.004;5.924;2023-09-07T06:18:03;20.2;56.7
9666;DHT22;4871;52.004;5.924;2023-09-07T06:19:00;20.2;56.5
9666;DHT22;4871;52.004;5.924;2023-09-07T06:20:03;20.3;56.4
9666;DHT22;4871;52.004;5.924;2023-09-07T06:21:00;20.4;56.9
9666;DHT22;4871;52.004;5.924;2023-09-07T06:22:04;20.3;56.5
9666;DHT22;4871;52.004;5.924;2023-09-07T06:23:00;20.4;56.6
9666;DHT22;4871;52.004;5.924;2023-09-07T06:24:02;20.4;56.2
9666;DHT22;4871;52.004;5.924;2023-09-07T06:25:00;20.4;56.6
9666;DHT22;4871;52.004;5.924;2023-09-07T06:26:03;20.4;56.5
9666;DHT22;4871;52.004;5.924;2023-09-07T06:27:00;20.5;56.4
9666;DHT22;4871;52.004;5.924;2023-09-07T06:28:02;20.5;56.9
9666;DHT22;4871;52.004;5.924;2023-09-07T06:29:00;20.6;56.3
9666;DHT22;4871;52.004;5.924;2023-09-07T06:30:03;20.6;56.4
9666;DHT22;4871;52.004;5.924;2023-09-07T06:31:00;20.7;56.8
9666;DHT22;4871;52.004;5.924;2023-09-07T06:32:04;20.7;56.9
9666;DHT22;4871;52.004;5.924;2023-09-07T06:33:00;20.8;56.5
9666;DHT22;4871;52.004;5.924;2023-09-07T06:34:04;20.8;56.9
9666;DHT22;4871;52.004;5.924;2023-09-07T06:35:00;20.8;56.4
9666;DHT22;4871;52.004;5.924;2023-09-07T06:36:02;20.9;56.2
9666;DHT22;4871;52.004;5.924;2023-09-07T06:37:01;20.9;56.5
9666;DHT22;4871;52.004;5.924;2023-09-07T06:38:02;21.0;56.3
9666;DHT22;4871;52.004;5.924;2023-09-07T06:39:00;21.1;56.1
9666;DHT22;4871;52.004;5.924;2023-09-07T06:40:01;21.1;55.9
9666;DHT22;4871;52.004;5.924;2023-09-07T06:41:00;21.2;55.8
9666;DHT22;4871;52.004;5.924;2023-09-07T06:42:01;21.2;55.6
9666;DHT22;4871;52.004;5.924;2023-09-07T06:43:05;21.3;56.0
9666;DHT22;4871;52.004;5.924;2023-09-07T06:44:02;21.4;55.7